AAL2546 KLAX-MMMX
Flight info
| Callsign | AAL2546 |
|---|---|
| Flight time | 3h 8m |
| Altitude | 35000 |
| Route | PNDAH2 TCATE DCT PPE UJ7 HMO UT18 IKNOR/N0463F370 UT18 NABAS UT49 DGO UJ5 ZCL UT130 DARAN DARAN3B |
| Aircraft | B38M/M-SDE1FGHILORVWXY/HB1 |
Departure
| Time | 2026-05-05 23:35 |
|---|---|
| Airport | Los Angeles International Airport (KLAX) |
Arrival
| Time | 2026-05-06 02:43 |
|---|---|
| Airport | Mexico City Benito Juárez International Airport (MMMX) |
| Time | Latitude | Longitude | Altitude | Speed | Heading |
|---|---|---|---|---|---|
| 2026-05-05 23:15 | 33.93980 | -118.40732 | 95 ft | 0 kts | 71° |
| 2026-05-05 23:25 | 33.93974 | -118.40751 | 95 ft | 4 kts | 71° |
| 2026-05-05 23:25 | 33.93967 | -118.40775 | 97 ft | 4 kts | 72° |
| 2026-05-05 23:26 | 33.93963 | -118.40805 | 95 ft | 4 kts | 104° |
| 2026-05-05 23:26 | 33.93974 | -118.40818 | 98 ft | 3 kts | 173° |
| 2026-05-05 23:26 | 33.93995 | -118.40821 | 96 ft | 0 kts | 173° |
| 2026-05-05 23:29 | 33.93989 | -118.40820 | 96 ft | 3 kts | 173° |
| 2026-05-05 23:29 | 33.93933 | -118.40812 | 97 ft | 11 kts | 172° |
| 2026-05-05 23:30 | 33.93864 | -118.40753 | 97 ft | 13 kts | 143° |
| 2026-05-05 23:30 | 33.93811 | -118.40673 | 98 ft | 13 kts | 91° |
| 2026-05-05 23:30 | 33.93822 | -118.40557 | 97 ft | 17 kts | 82° |
| 2026-05-05 23:30 | 33.93841 | -118.40372 | 98 ft | 27 kts | 83° |
| 2026-05-05 23:31 | 33.93863 | -118.40145 | 98 ft | 28 kts | 82° |
| 2026-05-05 23:31 | 33.93886 | -118.39931 | 98 ft | 26 kts | 83° |
| 2026-05-05 23:31 | 33.93908 | -118.39707 | 97 ft | 27 kts | 83° |
| 2026-05-05 23:31 | 33.93931 | -118.39491 | 97 ft | 26 kts | 83° |
| 2026-05-05 23:32 | 33.93952 | -118.39277 | 96 ft | 27 kts | 83° |
| 2026-05-05 23:32 | 33.93975 | -118.39062 | 96 ft | 26 kts | 83° |
| 2026-05-05 23:32 | 33.93996 | -118.38850 | 96 ft | 26 kts | 83° |
| 2026-05-05 23:32 | 33.94018 | -118.38633 | 97 ft | 26 kts | 83° |
| 2026-05-05 23:33 | 33.94040 | -118.38421 | 101 ft | 24 kts | 83° |
| 2026-05-05 23:33 | 33.94061 | -118.38224 | 97 ft | 24 kts | 83° |
| 2026-05-05 23:33 | 33.94077 | -118.38068 | 95 ft | 14 kts | 83° |
| 2026-05-05 23:33 | 33.94042 | -118.37999 | 95 ft | 10 kts | 165° |
| 2026-05-05 23:34 | 33.93985 | -118.38018 | 96 ft | 8 kts | 244° |
| 2026-05-05 23:34 | 33.93975 | -118.38108 | 96 ft | 22 kts | 263° |
| 2026-05-05 23:34 | 33.93926 | -118.38579 | 101 ft | 91 kts | 263° |
| 2026-05-05 23:34 | 33.93824 | -118.39583 | 100 ft | 148 kts | 263° |
| 2026-05-05 23:35 | 33.93678 | -118.40920 | 467 ft | 168 kts | 260° |
| 2026-05-05 23:35 | 33.93506 | -118.42323 | 1345 ft | 168 kts | 263° |
| 2026-05-05 23:35 | 33.93367 | -118.43737 | 2080 ft | 177 kts | 264° |
| 2026-05-05 23:35 | 33.93183 | -118.45309 | 2490 ft | 205 kts | 253° |
| 2026-05-05 23:36 | 33.92408 | -118.46892 | 2801 ft | 233 kts | 234° |
| 2026-05-05 23:36 | 33.91398 | -118.48478 | 3465 ft | 246 kts | 233° |
| 2026-05-05 23:36 | 33.90286 | -118.50131 | 4103 ft | 259 kts | 232° |
| 2026-05-05 23:36 | 33.89138 | -118.51794 | 5078 ft | 259 kts | 231° |
| 2026-05-05 23:37 | 33.87962 | -118.53492 | 5831 ft | 269 kts | 231° |
| 2026-05-05 23:37 | 33.86618 | -118.55082 | 6623 ft | 276 kts | 213° |
| 2026-05-05 23:37 | 33.84788 | -118.55841 | 7360 ft | 285 kts | 185° |
| 2026-05-05 23:37 | 33.82809 | -118.55599 | 8154 ft | 288 kts | 166° |
| 2026-05-05 23:38 | 33.80830 | -118.55061 | 8874 ft | 296 kts | 167° |
| 2026-05-05 23:38 | 33.78791 | -118.54521 | 9571 ft | 303 kts | 167° |
| 2026-05-05 23:38 | 33.76754 | -118.53976 | 10344 ft | 307 kts | 167° |
| 2026-05-05 23:38 | 33.74585 | -118.53393 | 10695 ft | 326 kts | 167° |
| 2026-05-05 23:39 | 33.72336 | -118.52770 | 10960 ft | 346 kts | 163° |
| 2026-05-05 23:39 | 33.70152 | -118.51453 | 11263 ft | 360 kts | 140° |
| 2026-05-05 23:39 | 33.68502 | -118.49172 | 11707 ft | 367 kts | 118° |
| 2026-05-05 23:39 | 33.67323 | -118.46437 | 12349 ft | 371 kts | 116° |
| 2026-05-05 23:40 | 33.66116 | -118.43662 | 12927 ft | 378 kts | 116° |
| 2026-05-05 23:40 | 33.64900 | -118.40850 | 13617 ft | 382 kts | 116° |
| 2026-05-05 23:40 | 33.63670 | -118.37995 | 14267 ft | 385 kts | 116° |
| 2026-05-05 23:40 | 33.62426 | -118.35109 | 14777 ft | 392 kts | 116° |
| 2026-05-05 23:41 | 33.61172 | -118.32202 | 15477 ft | 392 kts | 117° |
| 2026-05-05 23:41 | 33.59919 | -118.29298 | 16215 ft | 393 kts | 117° |
| 2026-05-05 23:41 | 33.58654 | -118.26367 | 16714 ft | 400 kts | 116° |
| 2026-05-05 23:41 | 33.57365 | -118.23386 | 17337 ft | 401 kts | 117° |
| 2026-05-05 23:42 | 33.56080 | -118.20412 | 17950 ft | 405 kts | 116° |
| 2026-05-05 23:42 | 33.54766 | -118.17379 | 18349 ft | 413 kts | 117° |
| 2026-05-05 23:42 | 33.53446 | -118.14317 | 18907 ft | 414 kts | 116° |
| 2026-05-05 23:42 | 33.52120 | -118.11237 | 19469 ft | 415 kts | 117° |
| 2026-05-05 23:43 | 33.50798 | -118.08166 | 20040 ft | 417 kts | 117° |
| 2026-05-05 23:43 | 33.49461 | -118.05061 | 20471 ft | 421 kts | 116° |
| 2026-05-05 23:43 | 33.48112 | -118.01936 | 20992 ft | 423 kts | 117° |
| 2026-05-05 23:43 | 33.46495 | -117.99007 | 21589 ft | 423 kts | 132° |
| 2026-05-05 23:44 | 33.44367 | -117.96550 | 22005 ft | 427 kts | 137° |
| 2026-05-05 23:44 | 33.42165 | -117.94133 | 22412 ft | 432 kts | 137° |
| 2026-05-05 23:44 | 33.39954 | -117.91742 | 22851 ft | 435 kts | 139° |
| 2026-05-05 23:44 | 33.37688 | -117.89319 | 23268 ft | 439 kts | 139° |
| 2026-05-05 23:45 | 33.35404 | -117.86892 | 23743 ft | 440 kts | 139° |
| 2026-05-05 23:45 | 33.33101 | -117.84450 | 24071 ft | 444 kts | 139° |
| 2026-05-05 23:45 | 33.30781 | -117.81993 | 24447 ft | 447 kts | 139° |
| 2026-05-05 23:45 | 33.28446 | -117.79521 | 24794 ft | 449 kts | 140° |
| 2026-05-05 23:46 | 33.26098 | -117.77039 | 25157 ft | 452 kts | 140° |
| 2026-05-05 23:46 | 33.23731 | -117.74537 | 25487 ft | 455 kts | 140° |
| 2026-05-05 23:46 | 33.22159 | -117.72877 | 25696 ft | 457 kts | 140° |
| 2026-05-05 23:46 | 33.18952 | -117.69491 | 26024 ft | 464 kts | 140° |
| 2026-05-05 23:47 | 33.17456 | -117.67661 | 26257 ft | 467 kts | 130° |
| 2026-05-05 23:47 | 33.15741 | -117.64356 | 26604 ft | 471 kts | 115° |
| 2026-05-05 23:47 | 33.14548 | -117.60703 | 26883 ft | 475 kts | 111° |
| 2026-05-05 23:47 | 33.13397 | -117.56979 | 27174 ft | 479 kts | 110° |
| 2026-05-05 23:48 | 33.12266 | -117.53234 | 27490 ft | 481 kts | 110° |
| 2026-05-05 23:48 | 33.11143 | -117.49459 | 27773 ft | 485 kts | 110° |
| 2026-05-05 23:48 | 33.10017 | -117.45653 | 28080 ft | 487 kts | 110° |
| 2026-05-05 23:48 | 33.08888 | -117.41835 | 28373 ft | 490 kts | 110° |
| 2026-05-05 23:49 | 33.07750 | -117.37987 | 28641 ft | 493 kts | 111° |
| 2026-05-05 23:49 | 33.06603 | -117.34119 | 28860 ft | 497 kts | 111° |
| 2026-05-05 23:49 | 33.05444 | -117.30209 | 29010 ft | 503 kts | 111° |
| 2026-05-05 23:49 | 33.04277 | -117.26279 | 29397 ft | 504 kts | 111° |
| 2026-05-05 23:50 | 33.03102 | -117.22327 | 29596 ft | 508 kts | 111° |
| 2026-05-05 23:50 | 33.01919 | -117.18357 | 29889 ft | 510 kts | 111° |
| 2026-05-05 23:50 | 33.00728 | -117.14361 | 30138 ft | 513 kts | 112° |
| 2026-05-05 23:50 | 32.99528 | -117.10342 | 30347 ft | 516 kts | 112° |
| 2026-05-05 23:51 | 32.98326 | -117.06320 | 30645 ft | 516 kts | 112° |
| 2026-05-05 23:51 | 32.97121 | -117.02296 | 30954 ft | 515 kts | 112° |
| 2026-05-05 23:51 | 32.95917 | -116.98278 | 31272 ft | 516 kts | 112° |
| 2026-05-05 23:51 | 32.94707 | -116.94250 | 31590 ft | 516 kts | 112° |
| 2026-05-05 23:52 | 32.93515 | -116.90283 | 31891 ft | 516 kts | 112° |
| 2026-05-05 23:52 | 32.92305 | -116.86261 | 32207 ft | 516 kts | 112° |
| 2026-05-05 23:52 | 32.91094 | -116.82246 | 32525 ft | 515 kts | 112° |
| 2026-05-05 23:52 | 32.89882 | -116.78230 | 32831 ft | 515 kts | 112° |
| 2026-05-05 23:53 | 32.88670 | -116.74219 | 33129 ft | 515 kts | 112° |
| 2026-05-05 23:53 | 32.87456 | -116.70208 | 33410 ft | 515 kts | 112° |
| 2026-05-05 23:53 | 32.86241 | -116.66198 | 33709 ft | 515 kts | 112° |
| 2026-05-05 23:53 | 32.85025 | -116.62191 | 33983 ft | 515 kts | 112° |
| 2026-05-05 23:54 | 32.83807 | -116.58178 | 34227 ft | 515 kts | 112° |
| 2026-05-05 23:54 | 32.82589 | -116.54174 | 34476 ft | 515 kts | 113° |
| 2026-05-05 23:54 | 32.81375 | -116.50183 | 34746 ft | 513 kts | 114° |
| 2026-05-05 23:54 | 32.79927 | -116.46333 | 34928 ft | 508 kts | 122° |
| 2026-05-05 23:55 | 32.76690 | -116.38842 | 35029 ft | 509 kts | 122° |
| 2026-05-05 23:55 | 32.73447 | -116.31383 | 35018 ft | 508 kts | 122° |
| 2026-05-05 23:56 | 32.70200 | -116.23931 | 35027 ft | 508 kts | 123° |
| 2026-05-05 23:56 | 32.66952 | -116.16494 | 35025 ft | 506 kts | 123° |
| 2026-05-05 23:57 | 32.63706 | -116.09077 | 34972 ft | 507 kts | 123° |
| 2026-05-05 23:57 | 32.60441 | -116.01636 | 35038 ft | 511 kts | 123° |
| 2026-05-05 23:58 | 32.57157 | -115.94158 | 35009 ft | 511 kts | 124° |
| 2026-05-05 23:58 | 32.53863 | -115.86679 | 35022 ft | 513 kts | 125° |
| 2026-05-05 23:59 | 32.50583 | -115.79244 | 35001 ft | 511 kts | 125° |
| 2026-05-05 23:59 | 32.47281 | -115.71776 | 34949 ft | 512 kts | 125° |
| 2026-05-06 00:00 | 32.43950 | -115.64258 | 34992 ft | 517 kts | 125° |
| 2026-05-06 00:00 | 32.40597 | -115.56707 | 34952 ft | 518 kts | 126° |
| 2026-05-06 00:01 | 32.37239 | -115.49158 | 34912 ft | 518 kts | 126° |
| 2026-05-06 00:01 | 32.33878 | -115.41620 | 34903 ft | 518 kts | 126° |
| 2026-05-06 00:02 | 32.30513 | -115.34086 | 34784 ft | 518 kts | 127° |
| 2026-05-06 00:02 | 32.28829 | -115.30325 | 34933 ft | 517 kts | 128° |
| 2026-05-06 00:02 | 32.27144 | -115.26563 | 34935 ft | 520 kts | 128° |
| 2026-05-06 00:03 | 32.23758 | -115.19016 | 34892 ft | 519 kts | 128° |
| 2026-05-06 00:03 | 32.20368 | -115.11476 | 34897 ft | 520 kts | 128° |
| 2026-05-06 00:04 | 32.16995 | -115.03988 | 34904 ft | 520 kts | 128° |
| 2026-05-06 00:04 | 32.13596 | -114.96460 | 34838 ft | 518 kts | 129° |
| 2026-05-06 00:05 | 32.08506 | -114.85212 | 34887 ft | 517 kts | 129° |
| 2026-05-06 00:06 | 32.05116 | -114.77740 | 34895 ft | 517 kts | 129° |
| 2026-05-06 00:06 | 32.01714 | -114.70258 | 34884 ft | 517 kts | 129° |
| 2026-05-06 00:07 | 31.98310 | -114.62786 | 34879 ft | 517 kts | 129° |
| 2026-05-06 00:07 | 31.94931 | -114.55385 | 34872 ft | 515 kts | 129° |
| 2026-05-06 00:08 | 31.91537 | -114.47965 | 34867 ft | 514 kts | 129° |
| 2026-05-06 00:08 | 31.88142 | -114.40558 | 34875 ft | 514 kts | 129° |
| 2026-05-06 00:09 | 31.84745 | -114.33161 | 34870 ft | 514 kts | 130° |
| 2026-05-06 00:09 | 31.81344 | -114.25771 | 34863 ft | 514 kts | 130° |
| 2026-05-06 00:10 | 31.77936 | -114.18380 | 34855 ft | 515 kts | 130° |
| 2026-05-06 00:10 | 31.74516 | -114.10977 | 34873 ft | 515 kts | 130° |
| 2026-05-06 00:11 | 31.71094 | -114.03585 | 34886 ft | 514 kts | 130° |
| 2026-05-06 00:11 | 31.67678 | -113.96221 | 34890 ft | 513 kts | 130° |
| 2026-05-06 00:12 | 31.64258 | -113.88861 | 34895 ft | 513 kts | 130° |
| 2026-05-06 00:12 | 31.60830 | -113.81501 | 34865 ft | 514 kts | 130° |
| 2026-05-06 00:13 | 31.57394 | -113.74137 | 34924 ft | 515 kts | 130° |
| 2026-05-06 00:13 | 31.53979 | -113.66832 | 34919 ft | 514 kts | 130° |
| 2026-05-06 00:14 | 31.50537 | -113.59483 | 34925 ft | 514 kts | 131° |
| 2026-05-06 00:14 | 31.47093 | -113.52141 | 34928 ft | 514 kts | 131° |
| 2026-05-06 00:15 | 31.43645 | -113.44804 | 34879 ft | 514 kts | 131° |
| 2026-05-06 00:15 | 31.40201 | -113.37489 | 34945 ft | 512 kts | 131° |
| 2026-05-06 00:16 | 31.36546 | -113.30453 | 34919 ft | 486 kts | 146° |
| 2026-05-06 00:16 | 31.34165 | -113.27780 | 34966 ft | 472 kts | 151° |
| 2026-05-06 00:16 | 31.31741 | -113.25172 | 34915 ft | 474 kts | 152° |
| 2026-05-06 00:17 | 31.26834 | -113.20059 | 34945 ft | 472 kts | 153° |
| 2026-05-06 00:17 | 31.21895 | -113.15013 | 34938 ft | 471 kts | 153° |
| 2026-05-06 00:18 | 31.16946 | -113.09978 | 34908 ft | 471 kts | 153° |
| 2026-05-06 00:18 | 31.12051 | -113.05005 | 34932 ft | 469 kts | 153° |
| 2026-05-06 00:19 | 31.07126 | -113.00011 | 34934 ft | 469 kts | 153° |
| 2026-05-06 00:19 | 31.02199 | -112.95019 | 34896 ft | 469 kts | 153° |
| 2026-05-06 00:20 | 30.97268 | -112.90032 | 34935 ft | 469 kts | 153° |
| 2026-05-06 00:20 | 30.92344 | -112.85059 | 34933 ft | 468 kts | 153° |
| 2026-05-06 00:21 | 30.87422 | -112.80095 | 34928 ft | 468 kts | 153° |
| 2026-05-06 00:21 | 30.82528 | -112.75165 | 34927 ft | 468 kts | 153° |
| 2026-05-06 00:22 | 30.77606 | -112.70215 | 34921 ft | 467 kts | 153° |
| 2026-05-06 00:22 | 30.72686 | -112.65273 | 34921 ft | 468 kts | 153° |
| 2026-05-06 00:23 | 30.67759 | -112.60331 | 34939 ft | 467 kts | 153° |
| 2026-05-06 00:23 | 30.62827 | -112.55390 | 34926 ft | 467 kts | 153° |
| 2026-05-06 00:24 | 30.57933 | -112.50495 | 34887 ft | 467 kts | 153° |
| 2026-05-06 00:24 | 30.53006 | -112.45580 | 34917 ft | 466 kts | 153° |
| 2026-05-06 00:25 | 30.48098 | -112.40685 | 34927 ft | 465 kts | 153° |
| 2026-05-06 00:25 | 30.43194 | -112.35798 | 34923 ft | 465 kts | 153° |
| 2026-05-06 00:26 | 30.38286 | -112.30917 | 34926 ft | 464 kts | 153° |
| 2026-05-06 00:26 | 30.33388 | -112.26052 | 34919 ft | 464 kts | 153° |
| 2026-05-06 00:27 | 30.28485 | -112.21188 | 34926 ft | 464 kts | 153° |
| 2026-05-06 00:27 | 30.23581 | -112.16330 | 34924 ft | 464 kts | 153° |
| 2026-05-06 00:28 | 30.18707 | -112.11509 | 34912 ft | 464 kts | 153° |
| 2026-05-06 00:28 | 30.13806 | -112.06667 | 34891 ft | 463 kts | 153° |
| 2026-05-06 00:29 | 30.08901 | -112.01828 | 34933 ft | 464 kts | 153° |
| 2026-05-06 00:29 | 30.04002 | -111.97001 | 34924 ft | 462 kts | 153° |
| 2026-05-06 00:30 | 29.99104 | -111.92183 | 34924 ft | 463 kts | 153° |
| 2026-05-06 00:30 | 29.94202 | -111.87364 | 34926 ft | 463 kts | 153° |
| 2026-05-06 00:31 | 29.89298 | -111.82551 | 34908 ft | 463 kts | 153° |
| 2026-05-06 00:31 | 29.84394 | -111.77748 | 34911 ft | 462 kts | 154° |
| 2026-05-06 00:32 | 29.79533 | -111.72991 | 34922 ft | 461 kts | 154° |
| 2026-05-06 00:32 | 29.74637 | -111.68202 | 34918 ft | 461 kts | 154° |
| 2026-05-06 00:33 | 29.69742 | -111.63424 | 34929 ft | 461 kts | 154° |
| 2026-05-06 00:33 | 29.64867 | -111.58669 | 34932 ft | 458 kts | 154° |
| 2026-05-06 00:34 | 29.59999 | -111.53926 | 34905 ft | 458 kts | 154° |
| 2026-05-06 00:34 | 29.57456 | -111.52039 | 34653 ft | 393 kts | 189° |
| 2026-05-06 00:34 | 29.54844 | -111.51974 | 34162 ft | 379 kts | 189° |
| 2026-05-06 00:34 | 29.52165 | -111.51538 | 33949 ft | 398 kts | 179° |
| 2026-05-06 00:35 | 29.49493 | -111.50553 | 34237 ft | 414 kts | 169° |
| 2026-05-06 00:35 | 29.46960 | -111.48777 | 34382 ft | 444 kts | 154° |
| 2026-05-06 00:35 | 29.44766 | -111.46117 | 34477 ft | 475 kts | 139° |
| 2026-05-06 00:35 | 29.43072 | -111.42751 | 34663 ft | 501 kts | 124° |
| 2026-05-06 00:36 | 29.42283 | -111.40222 | 34778 ft | 513 kts | 119° |
| 2026-05-06 00:36 | 29.41012 | -111.36461 | 34866 ft | 493 kts | 134° |
| 2026-05-06 00:36 | 29.38972 | -111.33524 | 34890 ft | 454 kts | 153° |
| 2026-05-06 00:37 | 29.34143 | -111.28908 | 34943 ft | 456 kts | 153° |
| 2026-05-06 00:37 | 29.29305 | -111.24198 | 34924 ft | 455 kts | 154° |
| 2026-05-06 00:38 | 29.24455 | -111.19524 | 34934 ft | 455 kts | 154° |
| 2026-05-06 00:38 | 29.19607 | -111.14860 | 34913 ft | 455 kts | 154° |
| 2026-05-06 00:39 | 29.14789 | -111.10230 | 34927 ft | 456 kts | 154° |
| 2026-05-06 00:39 | 29.09932 | -111.05540 | 34929 ft | 461 kts | 150° |
| 2026-05-06 00:40 | 29.05387 | -111.00235 | 34937 ft | 469 kts | 148° |
| 2026-05-06 00:40 | 29.00868 | -110.94863 | 34937 ft | 468 kts | 148° |
| 2026-05-06 00:41 | 28.96355 | -110.89500 | 34931 ft | 468 kts | 148° |
| 2026-05-06 00:41 | 28.91839 | -110.84140 | 34933 ft | 468 kts | 148° |
| 2026-05-06 00:42 | 28.87316 | -110.78780 | 34930 ft | 469 kts | 148° |
| 2026-05-06 00:42 | 28.82780 | -110.73411 | 34919 ft | 470 kts | 148° |
| 2026-05-06 00:43 | 28.78234 | -110.68038 | 34924 ft | 470 kts | 148° |
| 2026-05-06 00:43 | 28.73677 | -110.62690 | 34918 ft | 472 kts | 148° |
| 2026-05-06 00:43 | 28.71337 | -110.60224 | 34552 ft | 432 kts | 172° |
| 2026-05-06 00:44 | 28.68588 | -110.59782 | 30683 ft | 428 kts | 196° |
| 2026-05-06 00:44 | 28.65681 | -110.60256 | 30994 ft | 402 kts | 195° |
| 2026-05-06 00:44 | 28.63026 | -110.60526 | 32818 ft | 373 kts | 192° |
| 2026-05-06 00:44 | 28.60410 | -110.60242 | 33475 ft | 387 kts | 180° |
| 2026-05-06 00:45 | 28.57787 | -110.59218 | 33644 ft | 413 kts | 167° |
| 2026-05-06 00:45 | 28.55263 | -110.57458 | 33806 ft | 439 kts | 156° |
| 2026-05-06 00:45 | 28.52996 | -110.54986 | 33935 ft | 466 kts | 141° |
| 2026-05-06 00:45 | 28.51133 | -110.51898 | 34178 ft | 475 kts | 139° |
| 2026-05-06 00:46 | 28.49112 | -110.49018 | 34329 ft | 466 kts | 141° |
| 2026-05-06 00:46 | 28.47211 | -110.45964 | 34510 ft | 476 kts | 138° |
| 2026-05-06 00:46 | 28.45326 | -110.42870 | 34681 ft | 477 kts | 138° |
| 2026-05-06 00:46 | 28.43422 | -110.39784 | 34855 ft | 478 kts | 138° |
| 2026-05-06 00:47 | 28.41493 | -110.36678 | 34934 ft | 482 kts | 138° |
| 2026-05-06 00:47 | 28.37557 | -110.30369 | 34917 ft | 496 kts | 138° |
| 2026-05-06 00:48 | 28.33545 | -110.23936 | 34915 ft | 508 kts | 137° |
| 2026-05-06 00:48 | 28.29461 | -110.17370 | 34919 ft | 503 kts | 137° |
| 2026-05-06 00:49 | 28.25460 | -110.10946 | 34913 ft | 497 kts | 137° |
| 2026-05-06 00:49 | 28.21464 | -110.04549 | 34913 ft | 497 kts | 137° |
| 2026-05-06 00:50 | 28.17463 | -109.98153 | 34906 ft | 497 kts | 138° |
| 2026-05-06 00:50 | 28.15299 | -109.95190 | 34908 ft | 479 kts | 148° |
| 2026-05-06 00:50 | 28.12980 | -109.92473 | 34914 ft | 481 kts | 147° |
| 2026-05-06 00:51 | 28.08340 | -109.87014 | 34905 ft | 480 kts | 147° |
| 2026-05-06 00:51 | 28.03699 | -109.81580 | 34888 ft | 480 kts | 147° |
| 2026-05-06 00:52 | 27.99049 | -109.76140 | 34910 ft | 482 kts | 147° |
| 2026-05-06 00:52 | 27.94289 | -109.70884 | 34885 ft | 482 kts | 146° |
| 2026-05-06 00:53 | 27.89798 | -109.65297 | 34975 ft | 481 kts | 146° |
| 2026-05-06 00:53 | 27.85128 | -109.59881 | 34944 ft | 481 kts | 147° |
| 2026-05-06 00:54 | 27.80458 | -109.54453 | 34884 ft | 481 kts | 146° |
| 2026-05-06 00:54 | 27.75828 | -109.48920 | 34890 ft | 496 kts | 139° |
| 2026-05-06 00:54 | 27.73718 | -109.45838 | 35108 ft | 487 kts | 146° |
| 2026-05-06 00:55 | 27.71252 | -109.43370 | 35372 ft | 463 kts | 158° |
| 2026-05-06 00:55 | 27.68514 | -109.41707 | 35648 ft | 440 kts | 167° |
| 2026-05-06 00:55 | 27.65824 | -109.39929 | 35825 ft | 464 kts | 152° |
| 2026-05-06 00:55 | 27.63561 | -109.37210 | 36133 ft | 488 kts | 137° |
| 2026-05-06 00:56 | 27.61570 | -109.34104 | 36336 ft | 483 kts | 142° |
| 2026-05-06 00:56 | 27.59380 | -109.31264 | 36553 ft | 477 kts | 144° |
| 2026-05-06 00:56 | 27.57135 | -109.28525 | 36754 ft | 474 kts | 145° |
| 2026-05-06 00:56 | 27.54871 | -109.25846 | 36933 ft | 472 kts | 146° |
| 2026-05-06 00:57 | 27.52586 | -109.23186 | 36932 ft | 472 kts | 146° |
| 2026-05-06 00:57 | 27.48015 | -109.17924 | 36925 ft | 469 kts | 147° |
| 2026-05-06 00:58 | 27.43438 | -109.12676 | 36918 ft | 470 kts | 147° |
| 2026-05-06 00:58 | 27.38868 | -109.07399 | 36931 ft | 470 kts | 147° |
| 2026-05-06 00:59 | 27.34243 | -109.02219 | 36894 ft | 460 kts | 154° |
| 2026-05-06 00:59 | 27.31726 | -109.00207 | 36940 ft | 449 kts | 156° |
| 2026-05-06 00:59 | 27.29348 | -108.97781 | 36847 ft | 476 kts | 139° |
| 2026-05-06 00:59 | 27.27357 | -108.94768 | 36954 ft | 478 kts | 140° |
| 2026-05-06 01:00 | 27.25171 | -108.91998 | 36925 ft | 472 kts | 144° |
| 2026-05-06 01:00 | 27.20634 | -108.86656 | 36929 ft | 473 kts | 146° |
| 2026-05-06 01:01 | 27.16038 | -108.81391 | 36941 ft | 472 kts | 146° |
| 2026-05-06 01:01 | 27.11423 | -108.76143 | 36925 ft | 472 kts | 146° |
| 2026-05-06 01:02 | 27.06796 | -108.70891 | 36917 ft | 473 kts | 146° |
| 2026-05-06 01:02 | 27.02171 | -108.65663 | 36930 ft | 470 kts | 146° |
| 2026-05-06 01:03 | 26.97689 | -108.60837 | 36880 ft | 456 kts | 158° |
| 2026-05-06 01:03 | 26.92783 | -108.56226 | 36845 ft | 483 kts | 136° |
| 2026-05-06 01:04 | 26.88563 | -108.50456 | 36934 ft | 474 kts | 144° |
| 2026-05-06 01:04 | 26.83988 | -108.45122 | 36910 ft | 475 kts | 146° |
| 2026-05-06 01:05 | 26.79368 | -108.39882 | 36921 ft | 471 kts | 146° |
| 2026-05-06 01:05 | 26.74762 | -108.34695 | 36922 ft | 469 kts | 146° |
| 2026-05-06 01:06 | 26.70192 | -108.29558 | 36924 ft | 469 kts | 146° |
| 2026-05-06 01:06 | 26.65618 | -108.24328 | 36925 ft | 479 kts | 141° |
| 2026-05-06 01:06 | 26.63415 | -108.21554 | 36929 ft | 468 kts | 148° |
| 2026-05-06 01:07 | 26.61040 | -108.19091 | 36887 ft | 468 kts | 147° |
| 2026-05-06 01:07 | 26.58847 | -108.16342 | 36942 ft | 480 kts | 138° |
| 2026-05-06 01:07 | 26.56794 | -108.13390 | 36940 ft | 482 kts | 138° |
| 2026-05-06 01:08 | 26.52792 | -108.07360 | 36942 ft | 484 kts | 136° |
| 2026-05-06 01:08 | 26.48850 | -108.01255 | 36953 ft | 484 kts | 136° |
| 2026-05-06 01:09 | 26.44922 | -107.95140 | 36948 ft | 485 kts | 136° |
| 2026-05-06 01:09 | 26.40991 | -107.89030 | 36976 ft | 485 kts | 136° |
| 2026-05-06 01:10 | 26.37063 | -107.82931 | 36959 ft | 483 kts | 136° |
| 2026-05-06 01:10 | 26.33133 | -107.76831 | 36932 ft | 484 kts | 136° |
| 2026-05-06 01:11 | 26.29214 | -107.70767 | 36936 ft | 480 kts | 136° |
| 2026-05-06 01:11 | 26.25327 | -107.64744 | 36987 ft | 485 kts | 133° |
| 2026-05-06 01:11 | 26.23926 | -107.61242 | 36876 ft | 504 kts | 112° |
| 2026-05-06 01:12 | 26.23063 | -107.57471 | 36945 ft | 501 kts | 118° |
| 2026-05-06 01:12 | 26.21572 | -107.54077 | 36898 ft | 475 kts | 136° |
| 2026-05-06 01:12 | 26.19403 | -107.51453 | 36947 ft | 446 kts | 156° |
| 2026-05-06 01:12 | 26.16788 | -107.49727 | 37002 ft | 435 kts | 161° |
| 2026-05-06 01:13 | 26.14267 | -107.47712 | 36876 ft | 461 kts | 145° |
| 2026-05-06 01:13 | 26.12240 | -107.44851 | 36939 ft | 483 kts | 129° |
| 2026-05-06 01:13 | 26.10557 | -107.41586 | 36962 ft | 484 kts | 133° |
| 2026-05-06 01:14 | 26.04799 | -107.32419 | 37008 ft | 481 kts | 135° |
| 2026-05-06 01:14 | 26.00704 | -107.26705 | 37020 ft | 466 kts | 141° |
| 2026-05-06 01:15 | 25.98747 | -107.23745 | 36947 ft | 482 kts | 131° |
| 2026-05-06 01:15 | 25.96870 | -107.20685 | 37005 ft | 479 kts | 135° |
| 2026-05-06 01:15 | 25.92919 | -107.14700 | 36999 ft | 480 kts | 136° |
| 2026-05-06 01:16 | 25.88927 | -107.08764 | 36980 ft | 479 kts | 136° |
| 2026-05-06 01:16 | 25.84984 | -107.02761 | 36993 ft | 481 kts | 134° |
| 2026-05-06 01:17 | 25.81051 | -106.96741 | 37004 ft | 482 kts | 134° |
| 2026-05-06 01:17 | 25.77120 | -106.90726 | 37044 ft | 482 kts | 134° |
| 2026-05-06 01:18 | 25.73178 | -106.84712 | 37020 ft | 482 kts | 134° |
| 2026-05-06 01:18 | 25.69226 | -106.78717 | 37040 ft | 482 kts | 134° |
| 2026-05-06 01:19 | 25.65398 | -106.72585 | 37045 ft | 486 kts | 130° |
| 2026-05-06 01:19 | 25.63476 | -106.69542 | 36924 ft | 476 kts | 137° |
| 2026-05-06 01:19 | 25.61435 | -106.66658 | 37092 ft | 477 kts | 135° |
| 2026-05-06 01:20 | 25.59420 | -106.63702 | 36982 ft | 482 kts | 134° |
| 2026-05-06 01:20 | 25.57450 | -106.60760 | 37005 ft | 480 kts | 134° |
| 2026-05-06 01:20 | 25.53492 | -106.54782 | 36993 ft | 481 kts | 134° |
| 2026-05-06 01:21 | 25.49546 | -106.48807 | 37034 ft | 481 kts | 134° |
| 2026-05-06 01:21 | 25.45589 | -106.42822 | 37006 ft | 481 kts | 134° |
| 2026-05-06 01:22 | 25.41620 | -106.36877 | 37014 ft | 480 kts | 134° |
| 2026-05-06 01:22 | 25.37629 | -106.30943 | 37020 ft | 480 kts | 134° |
| 2026-05-06 01:23 | 25.33604 | -106.25053 | 36949 ft | 480 kts | 134° |
| 2026-05-06 01:23 | 25.29603 | -106.19153 | 36999 ft | 480 kts | 134° |
| 2026-05-06 01:24 | 25.25603 | -106.13271 | 36999 ft | 479 kts | 134° |
| 2026-05-06 01:24 | 25.21598 | -106.07385 | 37044 ft | 481 kts | 134° |
| 2026-05-06 01:25 | 25.17610 | -106.01529 | 36973 ft | 478 kts | 134° |
| 2026-05-06 01:25 | 25.13611 | -105.95665 | 37000 ft | 478 kts | 134° |
| 2026-05-06 01:26 | 25.09607 | -105.89803 | 36990 ft | 478 kts | 134° |
| 2026-05-06 01:26 | 25.05599 | -105.83939 | 36976 ft | 478 kts | 134° |
| 2026-05-06 01:27 | 25.01591 | -105.78081 | 36984 ft | 478 kts | 134° |
| 2026-05-06 01:27 | 24.97590 | -105.72243 | 36948 ft | 477 kts | 134° |
| 2026-05-06 01:28 | 24.93583 | -105.66403 | 36964 ft | 478 kts | 134° |
| 2026-05-06 01:28 | 24.89566 | -105.60555 | 36955 ft | 479 kts | 134° |
| 2026-05-06 01:29 | 24.85541 | -105.54703 | 36940 ft | 480 kts | 134° |
| 2026-05-06 01:29 | 24.81505 | -105.48840 | 36915 ft | 480 kts | 134° |
| 2026-05-06 01:30 | 24.77480 | -105.43000 | 36963 ft | 479 kts | 134° |
| 2026-05-06 01:30 | 24.73451 | -105.37164 | 36932 ft | 478 kts | 134° |
| 2026-05-06 01:31 | 24.69454 | -105.31381 | 36933 ft | 478 kts | 134° |
| 2026-05-06 01:31 | 24.65426 | -105.25558 | 36922 ft | 479 kts | 134° |
| 2026-05-06 01:32 | 24.61381 | -105.19728 | 36904 ft | 480 kts | 134° |
| 2026-05-06 01:32 | 24.57336 | -105.13903 | 36911 ft | 479 kts | 134° |
| 2026-05-06 01:33 | 24.53286 | -105.08076 | 36900 ft | 479 kts | 133° |
| 2026-05-06 01:33 | 24.49238 | -105.02261 | 36877 ft | 479 kts | 133° |
| 2026-05-06 01:34 | 24.45182 | -104.96441 | 36881 ft | 480 kts | 133° |
| 2026-05-06 01:34 | 24.41126 | -104.90627 | 36844 ft | 480 kts | 133° |
| 2026-05-06 01:35 | 24.37064 | -104.84811 | 36860 ft | 480 kts | 133° |
| 2026-05-06 01:35 | 24.33685 | -104.79980 | 36890 ft | 480 kts | 133° |
| 2026-05-06 01:36 | 24.28955 | -104.73224 | 36971 ft | 480 kts | 133° |
| 2026-05-06 01:36 | 24.24889 | -104.67425 | 37058 ft | 480 kts | 133° |
| 2026-05-06 01:37 | 24.20821 | -104.61629 | 37111 ft | 480 kts | 133° |
| 2026-05-06 01:37 | 24.17433 | -104.56806 | 37145 ft | 480 kts | 133° |
| 2026-05-06 01:38 | 24.13388 | -104.50985 | 37142 ft | 481 kts | 131° |
| 2026-05-06 01:38 | 24.09425 | -104.45089 | 37147 ft | 481 kts | 131° |
| 2026-05-06 01:39 | 24.05452 | -104.39207 | 37087 ft | 480 kts | 131° |
| 2026-05-06 01:39 | 24.01472 | -104.33324 | 36985 ft | 480 kts | 131° |
| 2026-05-06 01:40 | 23.97495 | -104.27452 | 36903 ft | 481 kts | 132° |
| 2026-05-06 01:40 | 23.93538 | -104.21616 | 36829 ft | 481 kts | 132° |
| 2026-05-06 01:41 | 23.89555 | -104.15749 | 36792 ft | 480 kts | 131° |
| 2026-05-06 01:41 | 23.85574 | -104.09891 | 36809 ft | 480 kts | 131° |
| 2026-05-06 01:42 | 23.81588 | -104.04033 | 36810 ft | 480 kts | 131° |
| 2026-05-06 01:42 | 23.77606 | -103.98187 | 36828 ft | 480 kts | 131° |
| 2026-05-06 01:43 | 23.73620 | -103.92343 | 36824 ft | 479 kts | 131° |
| 2026-05-06 01:43 | 23.69644 | -103.86511 | 36830 ft | 479 kts | 131° |
| 2026-05-06 01:44 | 23.65669 | -103.80677 | 36833 ft | 479 kts | 131° |
| 2026-05-06 01:44 | 23.61687 | -103.74853 | 36852 ft | 479 kts | 131° |
| 2026-05-06 01:45 | 23.57699 | -103.69037 | 36846 ft | 479 kts | 131° |
| 2026-05-06 01:45 | 23.53707 | -103.63219 | 36835 ft | 479 kts | 131° |
| 2026-05-06 01:46 | 23.49715 | -103.57398 | 36849 ft | 479 kts | 131° |
| 2026-05-06 01:46 | 23.45726 | -103.51587 | 36836 ft | 478 kts | 131° |
| 2026-05-06 01:47 | 23.41745 | -103.45798 | 36840 ft | 477 kts | 131° |
| 2026-05-06 01:47 | 23.37765 | -103.40013 | 36854 ft | 477 kts | 131° |
| 2026-05-06 01:48 | 23.33805 | -103.34265 | 36838 ft | 477 kts | 131° |
| 2026-05-06 01:48 | 23.29816 | -103.28485 | 36848 ft | 478 kts | 131° |
| 2026-05-06 01:49 | 23.25829 | -103.22711 | 36841 ft | 477 kts | 131° |
| 2026-05-06 01:49 | 23.21647 | -103.16661 | 36822 ft | 477 kts | 131° |
| 2026-05-06 01:50 | 23.17658 | -103.10898 | 36831 ft | 476 kts | 131° |
| 2026-05-06 01:50 | 23.13678 | -103.05155 | 36826 ft | 475 kts | 131° |
| 2026-05-06 01:51 | 23.09696 | -102.99417 | 36845 ft | 476 kts | 131° |
| 2026-05-06 01:51 | 23.05708 | -102.93677 | 36937 ft | 476 kts | 131° |
| 2026-05-06 01:52 | 23.01748 | -102.87982 | 37024 ft | 475 kts | 131° |
| 2026-05-06 01:52 | 22.97762 | -102.82258 | 37117 ft | 475 kts | 131° |
| 2026-05-06 01:53 | 22.93772 | -102.76534 | 37195 ft | 475 kts | 131° |
| 2026-05-06 01:53 | 22.89774 | -102.70852 | 37190 ft | 472 kts | 135° |
| 2026-05-06 01:54 | 22.87367 | -102.68510 | 37196 ft | 461 kts | 150° |
| 2026-05-06 01:54 | 22.84720 | -102.66538 | 37192 ft | 463 kts | 149° |
| 2026-05-06 01:54 | 22.79396 | -102.62603 | 37169 ft | 463 kts | 150° |
| 2026-05-06 01:55 | 22.74034 | -102.58726 | 37073 ft | 463 kts | 150° |
| 2026-05-06 01:55 | 22.68701 | -102.54888 | 36982 ft | 463 kts | 150° |
| 2026-05-06 01:56 | 22.63300 | -102.51006 | 36892 ft | 463 kts | 150° |
| 2026-05-06 01:56 | 22.57975 | -102.47182 | 36815 ft | 463 kts | 150° |
| 2026-05-06 01:57 | 22.52610 | -102.43333 | 36816 ft | 462 kts | 150° |
| 2026-05-06 01:57 | 22.47251 | -102.39493 | 36808 ft | 462 kts | 150° |
| 2026-05-06 01:58 | 22.41891 | -102.35654 | 36806 ft | 462 kts | 150° |
| 2026-05-06 01:58 | 22.36529 | -102.31818 | 36788 ft | 462 kts | 150° |
| 2026-05-06 01:59 | 22.31164 | -102.27981 | 36773 ft | 463 kts | 150° |
| 2026-05-06 01:59 | 22.25806 | -102.24158 | 36797 ft | 462 kts | 150° |
| 2026-05-06 02:00 | 22.20439 | -102.20329 | 36784 ft | 462 kts | 150° |
| 2026-05-06 02:00 | 22.15071 | -102.16504 | 36770 ft | 462 kts | 150° |
| 2026-05-06 02:01 | 22.09709 | -102.12682 | 36760 ft | 462 kts | 150° |
| 2026-05-06 02:01 | 22.04344 | -102.08869 | 36760 ft | 462 kts | 150° |
| 2026-05-06 02:02 | 21.98977 | -102.05054 | 36747 ft | 462 kts | 150° |
| 2026-05-06 02:02 | 21.93619 | -102.01250 | 36757 ft | 461 kts | 150° |
| 2026-05-06 02:03 | 21.88259 | -101.97447 | 36758 ft | 461 kts | 150° |
| 2026-05-06 02:03 | 21.82943 | -101.93679 | 36762 ft | 461 kts | 150° |
| 2026-05-06 02:04 | 21.77580 | -101.89881 | 36760 ft | 461 kts | 150° |
| 2026-05-06 02:04 | 21.72225 | -101.86092 | 36772 ft | 461 kts | 150° |
| 2026-05-06 02:05 | 21.66865 | -101.82303 | 36769 ft | 461 kts | 150° |
| 2026-05-06 02:05 | 21.61502 | -101.78515 | 36783 ft | 461 kts | 150° |
| 2026-05-06 02:06 | 21.56391 | -101.74365 | 36774 ft | 465 kts | 133° |
| 2026-05-06 02:06 | 21.52607 | -101.68665 | 36772 ft | 471 kts | 127° |
| 2026-05-06 02:07 | 21.48957 | -101.62835 | 36800 ft | 470 kts | 126° |
| 2026-05-06 02:07 | 21.45347 | -101.56985 | 36803 ft | 470 kts | 126° |
| 2026-05-06 02:08 | 21.41739 | -101.51133 | 36803 ft | 470 kts | 126° |
| 2026-05-06 02:08 | 21.38130 | -101.45285 | 36796 ft | 469 kts | 126° |
| 2026-05-06 02:09 | 21.34527 | -101.39454 | 36802 ft | 469 kts | 126° |
| 2026-05-06 02:09 | 21.30922 | -101.33624 | 36800 ft | 469 kts | 126° |
| 2026-05-06 02:10 | 21.27925 | -101.28782 | 36789 ft | 469 kts | 126° |
| 2026-05-06 02:10 | 21.24319 | -101.22964 | 36790 ft | 468 kts | 126° |
| 2026-05-06 02:11 | 21.20129 | -101.16210 | 36796 ft | 468 kts | 126° |
| 2026-05-06 02:11 | 21.17108 | -101.11345 | 36792 ft | 468 kts | 126° |
| 2026-05-06 02:12 | 21.13499 | -101.05540 | 36794 ft | 468 kts | 126° |
| 2026-05-06 02:12 | 21.09888 | -100.99735 | 36776 ft | 468 kts | 126° |
| 2026-05-06 02:13 | 21.06167 | -100.94084 | 36788 ft | 466 kts | 130° |
| 2026-05-06 02:13 | 21.02196 | -100.88590 | 36782 ft | 467 kts | 130° |
| 2026-05-06 02:14 | 20.98254 | -100.83074 | 36775 ft | 467 kts | 130° |
| 2026-05-06 02:14 | 20.94311 | -100.77556 | 36777 ft | 467 kts | 130° |
| 2026-05-06 02:15 | 20.90366 | -100.72038 | 36775 ft | 467 kts | 130° |
| 2026-05-06 02:15 | 20.86419 | -100.66526 | 36774 ft | 467 kts | 130° |
| 2026-05-06 02:16 | 20.82473 | -100.61018 | 36779 ft | 467 kts | 130° |
| 2026-05-06 02:16 | 20.78538 | -100.55505 | 36770 ft | 466 kts | 127° |
| 2026-05-06 02:17 | 20.77027 | -100.52443 | 36758 ft | 468 kts | 110° |
| 2026-05-06 02:17 | 20.76360 | -100.49037 | 36774 ft | 471 kts | 94° |
| 2026-05-06 02:17 | 20.76878 | -100.42007 | 36779 ft | 477 kts | 84° |
| 2026-05-06 02:18 | 20.77693 | -100.34966 | 36786 ft | 477 kts | 84° |
| 2026-05-06 02:18 | 20.78507 | -100.27965 | 37085 ft | 477 kts | 84° |
| 2026-05-06 02:19 | 20.79330 | -100.20926 | 37103 ft | 477 kts | 84° |
| 2026-05-06 02:19 | 20.80136 | -100.13893 | 37080 ft | 475 kts | 88° |
| 2026-05-06 02:20 | 20.78743 | -100.07196 | 37070 ft | 461 kts | 123° |
| 2026-05-06 02:20 | 20.76898 | -100.04400 | 37069 ft | 461 kts | 134° |
| 2026-05-06 02:20 | 20.74600 | -100.02035 | 37054 ft | 457 kts | 145° |
| 2026-05-06 02:21 | 20.71907 | -100.00286 | 37062 ft | 453 kts | 159° |
| 2026-05-06 02:21 | 20.69001 | -99.98996 | 36918 ft | 451 kts | 158° |
| 2026-05-06 02:21 | 20.66147 | -99.97647 | 36355 ft | 448 kts | 158° |
| 2026-05-06 02:21 | 20.63298 | -99.96273 | 35520 ft | 452 kts | 158° |
| 2026-05-06 02:22 | 20.60426 | -99.94868 | 34697 ft | 456 kts | 158° |
| 2026-05-06 02:22 | 20.57541 | -99.93466 | 34038 ft | 455 kts | 158° |
| 2026-05-06 02:22 | 20.54656 | -99.92070 | 33267 ft | 455 kts | 158° |
| 2026-05-06 02:22 | 20.51806 | -99.90692 | 32438 ft | 457 kts | 158° |
| 2026-05-06 02:23 | 20.48900 | -99.89286 | 31602 ft | 459 kts | 158° |
| 2026-05-06 02:23 | 20.45990 | -99.87880 | 30773 ft | 461 kts | 158° |
| 2026-05-06 02:23 | 20.43060 | -99.86466 | 29918 ft | 463 kts | 158° |
| 2026-05-06 02:23 | 20.40113 | -99.85045 | 28909 ft | 466 kts | 158° |
| 2026-05-06 02:24 | 20.37160 | -99.83627 | 28148 ft | 464 kts | 158° |
| 2026-05-06 02:24 | 20.34232 | -99.82229 | 27620 ft | 457 kts | 157° |
| 2026-05-06 02:24 | 20.31342 | -99.80851 | 27005 ft | 454 kts | 157° |
| 2026-05-06 02:24 | 20.28468 | -99.79480 | 26378 ft | 451 kts | 157° |
| 2026-05-06 02:25 | 20.25616 | -99.78119 | 25759 ft | 448 kts | 156° |
| 2026-05-06 02:25 | 20.22778 | -99.76765 | 25134 ft | 446 kts | 156° |
| 2026-05-06 02:25 | 20.19860 | -99.75712 | 24447 ft | 444 kts | 169° |
| 2026-05-06 02:25 | 20.16817 | -99.75118 | 23781 ft | 444 kts | 168° |
| 2026-05-06 02:26 | 20.13791 | -99.74494 | 23099 ft | 442 kts | 169° |
| 2026-05-06 02:26 | 20.10790 | -99.73889 | 22375 ft | 433 kts | 169° |
| 2026-05-06 02:26 | 20.07882 | -99.73308 | 21763 ft | 418 kts | 169° |
| 2026-05-06 02:26 | 20.05064 | -99.72747 | 21193 ft | 406 kts | 169° |
| 2026-05-06 02:27 | 20.02328 | -99.72203 | 20603 ft | 395 kts | 169° |
| 2026-05-06 02:27 | 19.99665 | -99.71673 | 20024 ft | 385 kts | 169° |
| 2026-05-06 02:27 | 19.97056 | -99.71154 | 19469 ft | 377 kts | 169° |
| 2026-05-06 02:27 | 19.94504 | -99.70647 | 18912 ft | 370 kts | 169° |
| 2026-05-06 02:28 | 19.91996 | -99.70149 | 18324 ft | 365 kts | 169° |
| 2026-05-06 02:28 | 19.89497 | -99.69652 | 17556 ft | 364 kts | 169° |
| 2026-05-06 02:28 | 19.87026 | -99.69162 | 16958 ft | 358 kts | 168° |
| 2026-05-06 02:28 | 19.84736 | -99.68418 | 16840 ft | 342 kts | 151° |
| 2026-05-06 02:29 | 19.82890 | -99.66920 | 16738 ft | 330 kts | 130° |
| 2026-05-06 02:29 | 19.81559 | -99.65014 | 16704 ft | 312 kts | 125° |
| 2026-05-06 02:29 | 19.80323 | -99.63190 | 16705 ft | 301 kts | 124° |
| 2026-05-06 02:29 | 19.79407 | -99.61219 | 16658 ft | 297 kts | 103° |
| 2026-05-06 02:30 | 19.79282 | -99.59052 | 16660 ft | 296 kts | 81° |
| 2026-05-06 02:30 | 19.79944 | -99.56989 | 16666 ft | 298 kts | 60° |
| 2026-05-06 02:30 | 19.81212 | -99.55245 | 16679 ft | 300 kts | 50° |
| 2026-05-06 02:30 | 19.82610 | -99.53588 | 16670 ft | 301 kts | 48° |
| 2026-05-06 02:31 | 19.84029 | -99.51951 | 16664 ft | 301 kts | 49° |
| 2026-05-06 02:31 | 19.85461 | -99.50323 | 16666 ft | 302 kts | 47° |
| 2026-05-06 02:31 | 19.86901 | -99.48702 | 16659 ft | 301 kts | 47° |
| 2026-05-06 02:31 | 19.88328 | -99.47074 | 16657 ft | 301 kts | 52° |
| 2026-05-06 02:32 | 19.89289 | -99.45125 | 16638 ft | 298 kts | 75° |
| 2026-05-06 02:32 | 19.89834 | -99.42987 | 16672 ft | 300 kts | 75° |
| 2026-05-06 02:32 | 19.90054 | -99.40805 | 16640 ft | 297 kts | 99° |
| 2026-05-06 02:32 | 19.89348 | -99.38756 | 16362 ft | 301 kts | 122° |
| 2026-05-06 02:33 | 19.87965 | -99.37096 | 15900 ft | 298 kts | 141° |
| 2026-05-06 02:33 | 19.86826 | -99.36299 | 15713 ft | 295 kts | 153° |
| 2026-05-06 02:33 | 19.82228 | -99.34939 | 15336 ft | 294 kts | 165° |
| 2026-05-06 02:34 | 19.80238 | -99.34412 | 15195 ft | 294 kts | 165° |
| 2026-05-06 02:34 | 19.78254 | -99.33892 | 15059 ft | 294 kts | 166° |
| 2026-05-06 02:34 | 19.76268 | -99.33372 | 14915 ft | 293 kts | 166° |
| 2026-05-06 02:34 | 19.74312 | -99.32860 | 14783 ft | 294 kts | 166° |
| 2026-05-06 02:35 | 19.72329 | -99.32343 | 14664 ft | 293 kts | 165° |
| 2026-05-06 02:35 | 19.70348 | -99.31826 | 14525 ft | 292 kts | 166° |
| 2026-05-06 02:35 | 19.68374 | -99.31311 | 14319 ft | 292 kts | 166° |
| 2026-05-06 02:35 | 19.66406 | -99.30799 | 14196 ft | 290 kts | 166° |
| 2026-05-06 02:36 | 19.64488 | -99.30300 | 14080 ft | 276 kts | 166° |
| 2026-05-06 02:36 | 19.62653 | -99.29822 | 13996 ft | 269 kts | 166° |
| 2026-05-06 02:36 | 19.60848 | -99.29348 | 13861 ft | 265 kts | 165° |
| 2026-05-06 02:36 | 19.59216 | -99.28560 | 13603 ft | 254 kts | 143° |
| 2026-05-06 02:37 | 19.57810 | -99.27463 | 13348 ft | 250 kts | 144° |
| 2026-05-06 02:37 | 19.56400 | -99.26381 | 13102 ft | 249 kts | 143° |
| 2026-05-06 02:37 | 19.55002 | -99.25302 | 12865 ft | 248 kts | 142° |
| 2026-05-06 02:37 | 19.53605 | -99.24235 | 12614 ft | 247 kts | 147° |
| 2026-05-06 02:38 | 19.51989 | -99.23638 | 12296 ft | 249 kts | 174° |
| 2026-05-06 02:38 | 19.50265 | -99.23555 | 12028 ft | 247 kts | 177° |
| 2026-05-06 02:38 | 19.48583 | -99.23498 | 11760 ft | 236 kts | 178° |
| 2026-05-06 02:38 | 19.46981 | -99.23453 | 11498 ft | 225 kts | 177° |
| 2026-05-06 02:39 | 19.45442 | -99.23415 | 11251 ft | 218 kts | 178° |
| 2026-05-06 02:39 | 19.43926 | -99.23382 | 11022 ft | 217 kts | 178° |
| 2026-05-06 02:39 | 19.42432 | -99.23353 | 10826 ft | 218 kts | 178° |
| 2026-05-06 02:39 | 19.40914 | -99.23315 | 10591 ft | 218 kts | 175° |
| 2026-05-06 02:40 | 19.39441 | -99.23013 | 10310 ft | 215 kts | 158° |
| 2026-05-06 02:40 | 19.38201 | -99.22181 | 10012 ft | 208 kts | 134° |
| 2026-05-06 02:40 | 19.37417 | -99.20908 | 9776 ft | 207 kts | 111° |
| 2026-05-06 02:40 | 19.37192 | -99.19417 | 9548 ft | 206 kts | 83° |
| 2026-05-06 02:41 | 19.37658 | -99.17991 | 9384 ft | 207 kts | 63° |
| 2026-05-06 02:41 | 19.38312 | -99.16684 | 9249 ft | 196 kts | 62° |
| 2026-05-06 02:41 | 19.38965 | -99.15429 | 9096 ft | 193 kts | 63° |
| 2026-05-06 02:41 | 19.39619 | -99.14195 | 8932 ft | 190 kts | 62° |
| 2026-05-06 02:42 | 19.40263 | -99.12999 | 8627 ft | 184 kts | 62° |
| 2026-05-06 02:42 | 19.40894 | -99.11837 | 8313 ft | 180 kts | 61° |
| 2026-05-06 02:42 | 19.41516 | -99.10702 | 7924 ft | 175 kts | 60° |
| 2026-05-06 02:42 | 19.42124 | -99.09621 | 7638 ft | 166 kts | 59° |
| 2026-05-06 02:43 | 19.42709 | -99.08563 | 7401 ft | 168 kts | 59° |
| 2026-05-06 02:43 | 19.43284 | -99.07545 | 7306 ft | 139 kts | 58° |
| 2026-05-06 02:43 | 19.43663 | -99.06869 | 7304 ft | 75 kts | 59° |
| 2026-05-06 02:43 | 19.43860 | -99.06545 | 7305 ft | 24 kts | 42° |
| 2026-05-06 02:44 | 19.43953 | -99.06481 | 7305 ft | 3 kts | 28° |
| 2026-05-06 02:44 | 19.43975 | -99.06469 | 7305 ft | 4 kts | 28° |
| 2026-05-06 02:44 | 19.44004 | -99.06453 | 7305 ft | 5 kts | 28° |
| 2026-05-06 02:44 | 19.44038 | -99.06434 | 7305 ft | 7 kts | 28° |
| 2026-05-06 02:45 | 19.44111 | -99.06393 | 7305 ft | 17 kts | 28° |
| 2026-05-06 02:45 | 19.44228 | -99.06330 | 7305 ft | 20 kts | 24° |
| 2026-05-06 02:45 | 19.44343 | -99.06286 | 7305 ft | 12 kts | 2° |
| 2026-05-06 02:45 | 19.44386 | -99.06302 | 7305 ft | 2 kts | 328° |
| 2026-05-06 02:46 | 19.44388 | -99.06304 | 7305 ft | 0 kts | 328° |
| 2026-05-06 02:46 | 19.44391 | -99.06306 | 7305 ft | 0 kts | 328° |
| 2026-05-06 02:46 | 19.44393 | -99.06307 | 7305 ft | 1 kts | 328° |
| 2026-05-06 02:46 | 19.44407 | -99.06335 | 7277 ft | 8 kts | 271° |
| 2026-05-06 02:47 | 19.44367 | -99.06419 | 7305 ft | 17 kts | 239° |
| 2026-05-06 02:47 | 19.44294 | -99.06550 | 7305 ft | 22 kts | 239° |
| 2026-05-06 02:47 | 19.44213 | -99.06694 | 7305 ft | 23 kts | 239° |
| 2026-05-06 02:47 | 19.44132 | -99.06838 | 7305 ft | 23 kts | 239° |
| 2026-05-06 02:48 | 19.44052 | -99.06982 | 7305 ft | 23 kts | 239° |
| 2026-05-06 02:48 | 19.43973 | -99.07121 | 7305 ft | 20 kts | 239° |
| 2026-05-06 02:48 | 19.43909 | -99.07234 | 7305 ft | 13 kts | 238° |
| 2026-05-06 02:48 | 19.43860 | -99.07320 | 7305 ft | 15 kts | 240° |
| 2026-05-06 02:49 | 19.43797 | -99.07433 | 7305 ft | 18 kts | 239° |
| 2026-05-06 02:49 | 19.43739 | -99.07536 | 7305 ft | 12 kts | 238° |
| 2026-05-06 02:49 | 19.43751 | -99.07603 | 7305 ft | 10 kts | 320° |
| 2026-05-06 02:49 | 19.43792 | -99.07662 | 7305 ft | 7 kts | 295° |
| 2026-05-06 02:50 | 19.43790 | -99.07705 | 7305 ft | 5 kts | 243° |
| 2026-05-06 02:50 | 19.43783 | -99.07720 | 7305 ft | 0 kts | 245° |